Albury
Weather
Information

and Archive.
Albury Local Internet Skycam This service provided and funded by Albury Local Internet

Help keep our weatherstation running:

Lavington Weatherstation live data - Conditions of Use

Last updated on 26-Sep-2017 at 20:40:06
Temperature
  Currently 11.5 degrees C
  Apparent Temperature ("Wind Chill") is 5.8 degrees C
  Today has ranged from  4.3 at 05:31 to 20.2 at 15:42
  Yesterday ranged from  6.9 at 05:03 to 17.8 at 14:26
Wind
  Now:    8.6kmh, gusting to  10.1kmh from 34 degrees ( NE)
  Hour:   6.6kmh, gusting to  10.1kmh
Rainfall
   0.0mm Midnight to Midnight (ie, yesterday)
   0.0mm Since Midnight (ie, so far today)
   0.0mm 9am yesterday to 9am today
  18.0mm Total this month
Misc items
  Relative humidity is  0%
  Dewpoint is nan deg C
  Estimated Cloudbase is nan feet
  Barometric Pressure is 1016.0 mbar
  Solar Insolation: 0 W/m^2
  UV Index: 0.0 (Low) *NEW*
Top Solar flares in the last 24 hours

Last 24 hours Temperature Graph (click graph for history)
temperature

Last 24 hours Dynamic Wind display (click image for 4-hour image):
Wind Rose

Current Yarrawonga Weather Radar and Infrared Satellite Images from the BOM.

Hourly summaries in the tables below are cumulative and peak values
for the preceding hour, and instantaneous values at the hour.
So far today, 26-Sep-2017
Time   Barom.  Wind + Gust    Direction   RH   Rain    Temp.  Minimum    Maximum
01:00  1015.0   3.8  11.2kmh  208 (SSW)    0%  0.0mm    6.9   6.8@00:57  9.8@00:04
02:00  1015.0   0.9  10.1kmh  191 ( S )    0%  0.0mm    6.8   6.7@01:04  7.8@01:37
03:00  1015.0   1.0   5.8kmh  134 ( SE)    0%  0.0mm    5.2   5.2@02:59  7.1@02:09
04:00  1016.0   1.1   6.5kmh  134 ( SE)    0%  0.0mm    5.5   5.1@03:02  5.9@03:16
05:00  1016.0   0.0   5.0kmh  134 ( SE)    0%  0.0mm    4.7   4.7@04:58  5.6@04:04
06:00  1017.0   0.0   0.0kmh  134 ( SE)    0%  0.0mm    4.5   4.3@05:31  5.0@05:13
07:00  1018.0   1.2   7.9kmh  135 ( SE)    0%  0.0mm    7.9   4.4@06:01  8.0@06:57
08:00  1018.0   1.9   8.6kmh  174 ( S )    0%  0.0mm    9.5   7.9@07:00 10.8@07:24
09:00  1018.0   2.7   8.6kmh  182 ( S )    0%  0.0mm   14.0   9.1@08:01 14.0@08:59
10:00  1018.0   5.6  16.2kmh  249 (WSW)    0%  0.0mm   13.8  12.3@09:39 14.7@09:13
11:00  1018.0   8.0  16.2kmh  196 (SSW)    0%  0.0mm   13.3  12.9@10:57 14.4@10:03
12:00  1017.0   7.4  16.2kmh  230 ( SW)    0%  0.0mm   16.7  13.3@11:00 16.8@11:59
13:00  1017.0   9.1  16.9kmh  238 (WSW)    0%  0.0mm   15.5  14.9@12:30 16.9@12:10
14:00  1017.0   9.0  17.6kmh  295 (WNW)    0%  0.0mm   16.6  15.5@13:00 18.4@13:47
15:00  1016.0   7.2  21.6kmh  215 ( SW)    0%  0.0mm   19.3  15.9@14:20 19.5@14:53
16:00  1016.0   4.5  13.3kmh  291 (WNW)    0%  0.0mm   18.4  17.0@15:49 20.2@15:42
17:00  1016.0   6.5  12.6kmh  302 (WNW)    0%  0.0mm   17.7  16.6@16:41 19.3@16:11
18:00  1016.0   7.4  14.0kmh  311 ( NW)    0%  0.0mm   13.9  14.0@17:59 17.8@17:06
19:00  1016.0   4.5   8.6kmh  327 (NNW)    0%  0.0mm   10.9  10.2@18:45 13.9@18:00
20:00  1016.0   3.0   7.9kmh    8 ( N )    0%  0.0mm   11.3  10.7@19:14 11.7@19:52
20:40  1016.0   6.6  10.1kmh   28 (NNE)    0%  0.0mm   11.5  11.1@20:05 11.5@20:02


Summary for yesterday, 25-Sep-2017
Time   Barom.  Wind + Gust    Direction   RH   Rain    Temp.  Minimum    Maximum
01:00  1007.0  10.9  20.2kmh  221 ( SW)    0%  0.0mm   11.9  11.7@00:52 12.9@00:00
02:00  1007.0   8.8  18.0kmh  218 ( SW)    0%  0.0mm   10.7  10.7@01:59 11.9@01:00
03:00  1007.0   7.1  15.5kmh  220 ( SW)    0%  0.0mm   10.2  10.2@02:44 10.8@02:04
04:00  1007.0   3.3  14.0kmh  219 ( SW)    0%  0.0mm    8.4   8.3@03:52 10.2@03:00
05:00  1008.0   1.0  10.1kmh  221 ( SW)    0%  0.0mm    7.1   7.1@04:58  8.7@04:20
06:00  1008.0   3.5  10.1kmh  329 (NNW)    0%  0.0mm    7.6   6.9@05:03  7.6@05:57
07:00  1009.0   8.3  14.8kmh  317 ( NW)    0%  0.0mm    9.6   7.5@06:01  9.6@06:53
08:00  1010.0   9.7  16.9kmh  319 ( NW)    0%  0.0mm   10.2   9.6@07:00 10.2@07:57
09:00  1011.0   8.5  16.2kmh  332 (NNW)    0%  0.0mm   10.9  10.2@08:00 11.0@08:48
10:00  1011.0  11.8  24.5kmh  313 ( NW)    0%  0.0mm   11.5  10.8@09:12 11.6@09:47
11:00  1011.0  12.1  24.5kmh  311 ( NW)    0%  0.0mm   13.4  11.5@10:00 13.2@10:59
12:00  1011.0  14.3  28.4kmh  324 ( NW)    0%  0.0mm   14.7  12.6@11:08 15.8@11:53
13:00  1010.0  13.0  29.9kmh  321 ( NW)    0%  0.0mm   17.1  13.6@12:19 16.9@12:58
14:00  1010.0  15.6  29.2kmh  281 ( W )    0%  0.0mm   15.2  15.4@13:59 17.6@13:10
15:00  1010.0  15.8  29.2kmh  292 (WNW)    0%  0.0mm   16.0  15.1@14:48 17.8@14:26
16:00  1010.0  17.0  40.7kmh  228 ( SW)    0%  0.0mm   17.0  15.1@15:10 17.2@15:54
17:00  1011.0  15.1  33.1kmh  275 ( W )    0%  0.0mm   15.4  15.1@16:36 17.3@16:15
18:00  1012.0  11.5  21.6kmh  249 (WSW)    0%  0.0mm   13.7  13.7@17:51 15.4@17:00
19:00  1012.0   7.7  16.9kmh  237 (WSW)    0%  0.0mm   12.3  12.4@18:58 13.7@18:00
20:00  1013.0   3.4  10.8kmh  150 (SSE)    0%  0.0mm    9.7   9.7@19:58 12.5@19:05
21:00  1014.0   1.4   8.6kmh  134 ( SE)    0%  0.0mm    9.6   9.4@20:32  9.9@20:06
22:00  1015.0   1.8   7.9kmh  255 (WSW)    0%  0.0mm    9.6   9.1@21:46 10.0@21:15
23:00  1015.0   6.1  12.6kmh  205 (SSW)    0%  0.0mm    9.7   9.6@22:00 10.4@22:13
00:00  1015.0   7.2  14.0kmh  208 (SSW)    0%  0.0mm    9.5   9.4@23:09 10.2@23:37